createdAt,value
2023-01-22T00:00:07.718Z,58.65
2023-01-22T00:05:31.114Z,58.45
2023-01-22T00:10:34.774Z,61.22
2023-01-22T00:15:41.217Z,59.78
2023-01-22T00:20:48.444Z,60.97
2023-01-22T00:26:01.075Z,52.17
2023-01-22T00:31:07.426Z,68.00
2023-01-22T00:36:12.730Z,60.35
2023-01-22T00:41:17.515Z,58.20
2023-01-22T00:46:22.361Z,56.05
2023-01-22T00:51:25.814Z,55.03
2023-01-22T00:56:29.329Z,56.55
2023-01-22T01:01:34.428Z,59.97
2023-01-22T01:06:38.076Z,53.95
2023-01-22T01:11:41.713Z,54.75
2023-01-22T01:16:46.497Z,64.32
2023-01-22T01:21:50.456Z,56.38
2023-01-22T01:26:53.786Z,61.03
2023-01-22T01:31:58.868Z,67.07
2023-01-22T01:37:02.324Z,63.05
2023-01-22T01:42:06.193Z,55.35
2023-01-22T01:47:32.184Z,63.20
2023-01-22T01:52:35.632Z,50.20
2023-01-22T01:57:39.775Z,54.00
2023-01-22T02:02:44.851Z,51.55
2023-01-22T02:07:48.611Z,50.38
2023-01-22T02:12:54.079Z,54.45
2023-01-22T02:17:58.832Z,50.72
2023-01-22T02:23:03.599Z,48.88
2023-01-22T02:28:07.279Z,55.30
2023-01-22T02:33:11.438Z,52.92
2023-01-22T02:38:16.182Z,50.10
2023-01-22T02:43:19.766Z,50.00
2023-01-22T02:48:23.496Z,46.10
2023-01-22T02:53:28.279Z,52.80
2023-01-22T02:58:31.650Z,51.75
2023-01-22T03:03:35.048Z,54.03
2023-01-22T03:08:39.794Z,47.00
2023-01-22T03:14:00.776Z,48.22
2023-01-22T03:19:22.351Z,47.72
2023-01-22T03:24:27.207Z,50.05
2023-01-22T03:29:31.077Z,52.30
2023-01-22T03:34:34.643Z,53.88
2023-01-22T03:39:39.987Z,52.30
2023-01-22T03:44:44.311Z,52.88
2023-01-22T03:49:47.648Z,51.72
2023-01-22T03:54:52.483Z,50.83
2023-01-22T03:59:55.943Z,51.80
2023-01-22T04:04:59.292Z,55.72
2023-01-22T04:10:04.115Z,52.28
2023-01-22T04:15:09.186Z,53.75
2023-01-22T04:20:13.091Z,47.20
2023-01-22T04:25:20.555Z,54.33
2023-01-22T04:30:24.088Z,50.47
2023-01-22T04:35:27.470Z,51.47
2023-01-22T04:40:32.488Z,50.53
2023-01-22T04:45:36.387Z,47.53
2023-01-22T04:50:39.838Z,47.63
2023-01-22T04:55:44.964Z,49.72
2023-01-22T05:00:49.049Z,52.40
2023-01-22T05:05:52.641Z,46.67
2023-01-22T05:11:01.757Z,47.55
2023-01-22T05:16:05.318Z,49.60
2023-01-22T05:21:08.827Z,43.28
2023-01-22T05:26:13.567Z,41.67
2023-01-22T05:31:17.019Z,42.50
2023-01-22T05:36:20.567Z,41.05
2023-01-22T05:41:25.555Z,35.38
2023-01-22T05:46:29.613Z,39.38
2023-01-22T05:51:33.425Z,37.28
2023-01-22T05:56:38.201Z,33.90
2023-01-22T06:01:42.003Z,29.98
2023-01-22T06:06:45.471Z,26.40
2023-01-22T06:11:50.383Z,23.02
2023-01-22T06:16:53.835Z,25.35
2023-01-22T06:21:57.286Z,18.70
2023-01-22T06:27:02.395Z,19.80
2023-01-22T06:32:06.523Z,18.38
2023-01-22T06:37:10.529Z,16.35
2023-01-22T06:42:15.316Z,17.65
2023-01-22T06:47:19.052Z,19.35
2023-01-22T06:52:22.781Z,20.95
2023-01-22T06:57:27.943Z,23.95
2023-01-22T07:02:31.703Z,25.38
2023-01-22T07:07:35.115Z,25.45
2023-01-22T07:12:40.309Z,25.02
2023-01-22T07:17:43.925Z,18.92
2023-01-22T07:22:47.618Z,21.95
2023-01-22T07:27:52.392Z,20.75
2023-01-22T07:33:00.198Z,22.23
2023-01-22T07:38:03.603Z,25.08
2023-01-22T07:43:08.426Z,22.10
2023-01-22T07:48:12.298Z,21.75
2023-01-22T07:53:15.703Z,25.60
2023-01-22T07:58:20.605Z,33.10
2023-01-22T08:03:24.049Z,37.17
2023-01-22T08:08:27.465Z,39.33
2023-01-22T08:13:32.589Z,44.13
2023-01-22T08:18:36.622Z,41.30
2023-01-22T08:23:40.035Z,42.45
2023-01-22T08:28:44.797Z,42.15
2023-01-22T08:33:48.162Z,43.92
2023-01-22T08:38:51.555Z,40.85
2023-01-22T08:43:56.314Z,35.83
2023-01-22T08:49:00.924Z,37.72
2023-01-22T08:54:04.963Z,34.83
2023-01-22T08:59:10.077Z,39.22
2023-01-22T09:04:13.850Z,34.22
2023-01-22T09:09:17.559Z,31.27
2023-01-22T09:14:23.389Z,36.30
2023-01-22T09:19:26.918Z,35.67
2023-01-22T09:24:30.415Z,36.72
2023-01-22T09:29:35.293Z,36.40
2023-01-22T09:34:39.136Z,37.05
2023-01-22T09:39:42.858Z,33.35
2023-01-22T09:44:51.778Z,32.08
2023-01-22T09:50:01.061Z,32.13
2023-01-22T09:55:04.709Z,33.22
2023-01-22T10:00:17.037Z,30.27
2023-01-22T10:05:30.016Z,32.30
2023-01-22T10:10:35.059Z,28.58
2023-01-22T10:15:40.156Z,26.73
2023-01-22T10:20:44.799Z,25.70
2023-01-22T10:25:48.508Z,25.48
2023-01-22T10:30:57.901Z,29.33
2023-01-22T10:36:05.256Z,24.08
2023-01-22T10:41:17.703Z,27.48
2023-01-22T10:46:27.020Z,26.25
2023-01-22T10:51:33.654Z,25.55
2023-01-22T10:56:40.894Z,24.75
2023-01-22T11:01:48.290Z,41.35
2023-01-22T11:06:55.351Z,29.98
2023-01-22T11:12:05.597Z,24.35
2023-01-22T11:17:19.124Z,24.77
2023-01-22T11:22:28.676Z,24.02
2023-01-22T11:28:09.412Z,24.95
2023-01-22T11:33:30.759Z,27.02
2023-01-22T11:38:42.673Z,22.67
2023-01-22T11:43:59.582Z,20.70
2023-01-22T11:49:14.374Z,25.13
2023-01-22T11:54:34.080Z,22.42
2023-01-22T11:59:51.189Z,24.25
2023-01-22T12:05:17.968Z,25.73
2023-01-22T12:10:44.847Z,23.58
2023-01-22T12:15:57.519Z,24.88
2023-01-22T12:21:20.747Z,21.58
2023-01-22T12:26:27.657Z,28.15
2023-01-22T12:31:36.727Z,26.27
2023-01-22T12:36:42.330Z,26.80
2023-01-22T12:41:53.415Z,27.75
2023-01-22T12:47:06.123Z,24.25
2023-01-22T12:57:41.887Z,29.25
2023-01-22T13:02:45.246Z,30.20
2023-01-22T13:07:50.199Z,30.35
2023-01-22T13:12:57.450Z,29.90
2023-01-22T13:18:07.863Z,35.53
2023-01-22T13:23:14.882Z,33.78
2023-01-22T13:28:20.391Z,40.25
2023-01-22T13:33:24.230Z,34.72
2023-01-22T13:38:33.674Z,34.97
2023-01-22T13:43:40.458Z,38.08
2023-01-22T13:48:44.540Z,34.42
2023-01-22T13:53:53.021Z,33.92
2023-01-22T13:59:20.573Z,33.83
2023-01-22T14:04:30.089Z,31.50
2023-01-22T14:09:36.079Z,26.73
2023-01-22T14:14:42.037Z,33.13
2023-01-22T14:19:45.806Z,29.38
2023-01-22T14:24:52.501Z,30.48
2023-01-22T14:29:57.482Z,31.08
2023-01-22T14:35:01.825Z,31.42
2023-01-22T14:40:06.075Z,34.65
2023-01-22T14:45:12.622Z,30.40
2023-01-22T14:50:16.763Z,34.78
2023-01-22T14:55:20.674Z,33.00
2023-01-22T15:00:26.121Z,32.65
2023-01-22T15:05:30.021Z,33.60
2023-01-22T15:10:33.407Z,32.63
2023-01-22T15:15:38.118Z,37.25
2023-01-22T15:20:41.757Z,41.40
2023-01-22T15:25:45.367Z,41.40
2023-01-22T15:30:50.839Z,31.10
2023-01-22T15:35:54.228Z,31.77
2023-01-22T15:41:05.956Z,31.77
2023-01-22T15:46:10.816Z,35.92
2023-01-22T15:51:15.502Z,38.65
2023-01-22T15:56:20.019Z,34.20
2023-01-22T16:01:25.996Z,34.53
2023-01-22T16:06:30.832Z,39.70
2023-01-22T16:11:35.048Z,40.45
2023-01-22T16:16:40.227Z,38.60
2023-01-22T16:21:45.090Z,38.17
2023-01-22T16:26:48.562Z,34.70
2023-01-22T16:31:53.553Z,36.05
2023-01-22T16:36:57.618Z,31.50
2023-01-22T16:42:01.133Z,34.58
2023-01-22T16:47:06.027Z,33.80
2023-01-22T16:52:22.547Z,36.83
2023-01-22T16:57:26.599Z,34.15
2023-01-22T17:02:31.358Z,39.58
2023-01-22T17:07:34.793Z,36.28
2023-01-22T17:12:38.271Z,36.90
2023-01-22T17:17:43.233Z,33.45
2023-01-22T17:22:46.608Z,41.38
2023-01-22T17:27:50.060Z,44.92
2023-01-22T17:32:54.814Z,44.97
2023-01-22T17:37:58.250Z,40.05
2023-01-22T17:43:02.533Z,36.25
2023-01-22T17:48:08.362Z,38.00
2023-01-22T17:53:12.371Z,38.25
2023-01-22T17:58:17.987Z,35.90
2023-01-22T18:03:23.959Z,38.17
2023-01-22T18:08:29.086Z,37.33
2023-01-22T18:13:32.707Z,37.10
2023-01-22T18:18:38.248Z,35.35
2023-01-22T18:23:41.782Z,33.05
2023-01-22T18:28:45.174Z,38.45
2023-01-22T18:33:50.413Z,40.65
2023-01-22T18:38:54.111Z,38.65
2023-01-22T18:43:59.676Z,41.22
2023-01-22T18:49:06.651Z,43.05
2023-01-22T18:54:10.536Z,38.50
2023-01-22T18:59:13.925Z,38.75
2023-01-22T19:04:21.696Z,38.90
2023-01-22T19:09:27.016Z,42.33
2023-01-22T19:14:30.615Z,38.47
2023-01-22T19:19:36.168Z,32.47
2023-01-22T19:24:39.599Z,39.75
2023-01-22T19:29:43.307Z,39.03
2023-01-22T19:34:48.077Z,39.50
2023-01-22T19:39:51.855Z,43.17
2023-01-22T19:44:55.250Z,38.33
2023-01-22T19:50:00.117Z,40.45
2023-01-22T19:55:03.739Z,46.40
2023-01-22T20:00:08.936Z,38.30
2023-01-22T20:05:13.827Z,36.40
2023-01-22T20:10:19.187Z,38.70
2023-01-22T20:15:22.816Z,40.15
2023-01-22T20:20:27.858Z,37.17
2023-01-22T20:25:32.199Z,36.50
2023-01-22T20:30:35.762Z,37.88
2023-01-22T20:35:43.194Z,41.13
2023-01-22T20:40:47.411Z,40.95
2023-01-22T20:46:00.722Z,39.53
2023-01-22T20:56:12.522Z,38.45
2023-01-22T21:01:19.190Z,35.17
2023-01-22T21:06:24.955Z,38.92
2023-01-22T21:11:30.913Z,34.15
2023-01-22T21:16:36.528Z,34.78
2023-01-22T21:21:41.362Z,37.60
2023-01-22T21:26:45.358Z,32.88
2023-01-22T21:31:50.201Z,34.65
2023-01-22T21:36:58.713Z,40.78
2023-01-22T21:42:19.874Z,41.67
2023-01-22T21:47:23.250Z,40.83
2023-01-22T21:52:28.199Z,41.92
2023-01-22T21:57:31.625Z,40.47
2023-01-22T22:02:35.049Z,39.75
2023-01-22T22:07:40.180Z,41.67
2023-01-22T22:12:43.656Z,48.40
2023-01-22T22:17:47.024Z,41.92
2023-01-22T22:22:51.747Z,46.70
2023-01-22T22:27:57.841Z,49.33
2023-01-22T22:33:01.582Z,43.20
2023-01-22T22:38:06.718Z,46.80
2023-01-22T22:43:10.189Z,44.03
2023-01-22T22:48:13.576Z,40.08
2023-01-22T22:53:18.299Z,51.17
2023-01-22T22:58:21.753Z,47.60
2023-01-22T23:03:26.403Z,47.00
2023-01-22T23:08:31.498Z,44.05
2023-01-22T23:13:35.849Z,44.67
2023-01-22T23:18:39.325Z,43.30
2023-01-22T23:23:44.426Z,45.97
2023-01-22T23:28:50.032Z,50.40
2023-01-22T23:33:55.149Z,45.50
2023-01-22T23:39:00.226Z,52.28
2023-01-22T23:44:04.293Z,45.88
2023-01-22T23:49:07.753Z,43.88
2023-01-22T23:54:12.679Z,48.53
2023-01-22T23:59:16.103Z,45.45
